DW5978 Whyalla SA AU current weather conditions

sailwx.info

Wind from 179 at 5 knots gusting 13

Air temperature 15.6° C
Dewpoint 7.1° C

Last reported at 2016-Sep-26 07:42 UTC.
Time now 2016-Sep-26 08:50 UTC

Location: S 33°01' E 137°32'.
View on Google Maps.

See reports from other nearby stations

  
Tides and Currents Weather Stations Pressure Air Temp Water Temp Dewpoint Dewpoint Depression Visibility Wind Speed Wind Dir Waves Ship Positions
date/time (UTC)wind fromknots sea level pressurealtimeterstation pressurevisibilityair tempwater tempwave heightnotes
2016-Sep-26 07:42 179 5 gusting 13 15.6
2016-Sep-26 07:27 156 6 gusting 13 15.6
2016-Sep-26 07:12 153 7 gusting 16 15.6
2016-Sep-26 06:57 134 7 gusting 15 16.1
2016-Sep-26 06:42 128 7 gusting 15 16.1
2016-Sep-26 06:27 185 6 gusting 16 16.1
2016-Sep-26 06:12 162 8 gusting 17 16.7
2016-Sep-26 05:57 162 4 gusting 13 16.7
2016-Sep-26 05:42 176 7 gusting 14 17.2
2016-Sep-26 05:27 208 6 gusting 13 17.2
2016-Sep-26 05:12 127 8 gusting 13 17.2
2016-Sep-26 04:57 203 5 gusting 11 17.2
2016-Sep-26 04:42 134 5 gusting 11 17.8
2016-Sep-26 04:26 133 6 gusting 11 17.8
2016-Sep-26 04:11 181 6 gusting 13 17.8
2016-Sep-26 03:56 139 9 gusting 17 18.3
2016-Sep-26 03:41 262 10 gusting 17 22.8
2016-Sep-26 03:26 297 11 gusting 19 22.8
2016-Sep-26 03:11 300 11 gusting 19 22.2
2016-Sep-26 02:56 290 13 gusting 24 22.2
2016-Sep-26 02:41 274 13 gusting 20 21.7
2016-Sep-26 02:26 288 13 gusting 21 21.7
2016-Sep-26 02:11 277 13 gusting 19 21.7
2016-Sep-26 01:56 307 13 gusting 19 21.7
2016-Sep-26 01:41 322 12 gusting 20 21.1
2016-Sep-26 01:26 278 14 gusting 19 21.1
2016-Sep-26 01:11 359 9 gusting 17 20.6
2016-Sep-26 00:56 333 11 gusting 16 20.0
2016-Sep-26 00:41 347 11 gusting 17 19.4
2016-Sep-26 00:26 319 11 gusting 17 18.9
2016-Sep-26 00:11 304 10 gusting 16 18.3
2016-Sep-25 23:56 317 9 gusting 14 17.8
2016-Sep-25 23:41 297 12 gusting 18 16.7
2016-Sep-25 23:26 001 9 gusting 16 16.7
2016-Sep-25 23:11 333 10 gusting 18 15.6
2016-Sep-25 22:56 336 11 gusting 17 15.6
2016-Sep-25 22:41 333 11 gusting 17 14.4
2016-Sep-25 22:26 325 6 gusting 13 13.3
2016-Sep-25 22:10 322 7 gusting 12 11.7
2016-Sep-25 21:55 315 6 gusting 10 11.1
2016-Sep-25 21:40 297 4 gusting 7 10.6
2016-Sep-25 21:25 311 5 gusting 9 11.1
2016-Sep-25 21:10 309 7 gusting 11 10.0
2016-Sep-25 20:55
2016-Sep-25 20:40
2016-Sep-25 20:25
2016-Sep-25 19:55
2016-Sep-25 19:40
2016-Sep-25 19:25
2016-Sep-25 19:10
2016-Sep-25 18:55
2016-Sep-25 18:40
2016-Sep-25 18:25 320 5 gusting 7 8.9
2016-Sep-25 18:10 327 5 gusting 7 8.3
2016-Sep-25 17:55 336 4 gusting 6 7.8
2016-Sep-25 17:39 297 4 gusting 5 8.3
2016-Sep-25 17:09 342 3 gusting 6 8.9
2016-Sep-25 16:54 339 0 gusting 2 8.9
2016-Sep-25 16:39 322 9.4
2016-Sep-25 16:24 321 3 gusting 5 9.4
2016-Sep-25 16:09 327 3 gusting 5 8.9
2016-Sep-25 15:54 325 3 gusting 5 9.4
2016-Sep-25 15:39 311 3 gusting 6 9.4
2016-Sep-25 15:24 315 4 gusting 7 10.0
2016-Sep-25 15:09 333 4 gusting 7 10.0
2016-Sep-25 14:54 316 5 gusting 8 10.0
2016-Sep-25 14:39 316 4 gusting 6 10.0
2016-Sep-25 14:24 325 3 gusting 5 10.6
2016-Sep-25 14:09 325 3 gusting 5 10.6
2016-Sep-25 13:54 313 3 gusting 5 11.1
2016-Sep-25 13:39 318 2 gusting 4 11.1
2016-Sep-25 13:24 327 3 gusting 5 11.1
2016-Sep-25 13:09 324 4 gusting 6 10.6
2016-Sep-25 12:54 302 3 gusting 5 10.6
2016-Sep-25 12:39 311 4 gusting 7 11.7
2016-Sep-25 12:24 030 5 gusting 6 11.7
2016-Sep-25 12:09 022 6 gusting 8 11.7
2016-Sep-25 11:54 051 6 gusting 7 11.7
2016-Sep-25 11:39 030 5 gusting 7 12.2
2016-Sep-25 11:24 043 5 gusting 6 12.2
2016-Sep-25 11:09 033 6 gusting 7 12.2
2016-Sep-25 10:54 041 3 gusting 6 12.8
2016-Sep-25 10:39 052 2 gusting 6 12.2
2016-Sep-25 10:24 036 4 gusting 6 12.2
2016-Sep-25 10:09 063 4 gusting 6 12.2
2016-Sep-25 09:54 064 3 gusting 6 12.2
2016-Sep-25 09:39 040 3 gusting 4 12.2
2016-Sep-25 09:24 036 1 gusting 4 12.2
2016-Sep-25 09:09 039 2 gusting 6 12.8
2016-Sep-25 08:53 054 3 gusting 6 13.3
2016-Sep-25 08:39 049 3 gusting 6 14.4
2016-Sep-25 08:23 067 5 gusting 8 15.0
2016-Sep-25 08:09 075 6 gusting 10 15.0
2016-Sep-25 07:53 063 6 gusting 9 15.6
2016-Sep-25 07:39 077 3 gusting 8 15.6
2016-Sep-25 07:24 061 7 gusting 10 15.6
2016-Sep-25 07:08 075 6 gusting 10 15.6
2016-Sep-25 06:53 072 7 gusting 13 15.6
2016-Sep-25 06:38 117 5 gusting 11 15.6
2016-Sep-25 06:23 103 4 gusting 11 15.6
2016-Sep-25 06:09 117 5 gusting 8 15.6
2016-Sep-25 05:53 099 6 gusting 10 15.6
2016-Sep-25 05:38 077 4 gusting 9 15.6
2016-Sep-25 05:23 058 5 gusting 10 15.0
2016-Sep-25 05:08 058 7 gusting 13 16.1
2016-Sep-25 04:53 027 5 gusting 8 16.1
2016-Sep-25 04:38 033 3 gusting 9 16.1
2016-Sep-25 04:23 092 2 gusting 6 16.1
2016-Sep-25 04:08 106 2 gusting 6 15.6
2016-Sep-25 03:53 111 2 gusting 6 15.0
2016-Sep-25 03:38 094 2 gusting 7 15.6
2016-Sep-25 03:23 047 1 gusting 8 15.0
2016-Sep-25 03:08 030 4 gusting 6 15.6
2016-Sep-25 02:53 078 1 gusting 6 15.0
2016-Sep-25 02:38 193 3 gusting 7 15.0
2016-Sep-25 02:23 243 1 gusting 6 15.6
2016-Sep-25 02:08 285 3 gusting 8 15.6
2016-Sep-25 01:53 281 2 gusting 6 14.4
2016-Sep-25 01:38 240 5 gusting 8 15.0
2016-Sep-25 01:23 250 3 gusting 6 14.4
2016-Sep-25 01:08 287 4 gusting 7 14.4
2016-Sep-25 00:53 246 1 gusting 4 13.9
2016-Sep-25 00:38 186 4 gusting 7 13.3
2016-Sep-25 00:23 221 4 gusting 8 13.3
2016-Sep-25 00:08 233 2 gusting 6 13.3
2016-Sep-24 23:53 283 2 gusting 4 12.8
2016-Sep-24 23:38 270 1 gusting 5 11.1
2016-Sep-24 23:23 297 2 gusting 4 10.0
2016-Sep-24 23:08 285 1 gusting 5 10.0
2016-Sep-24 22:52 283 1 gusting 5 9.4
2016-Sep-24 22:37 305 1 gusting 4 8.9
2016-Sep-24 22:22 302 2 gusting 4 7.8
2016-Sep-24 22:07 278 2 gusting 4 7.8
2016-Sep-24 21:52 302 1 gusting 4 6.7
2016-Sep-24 21:37 300 2 gusting 5 6.1
2016-Sep-24 21:22 307 2 gusting 5 5.6
2016-Sep-24 21:07 307 1 gusting 3 5.0
2016-Sep-24 20:52
2016-Sep-24 20:37
2016-Sep-24 20:22
2016-Sep-24 20:07
2016-Sep-24 19:52
2016-Sep-24 19:37
2016-Sep-24 19:22
2016-Sep-24 19:07
2016-Sep-24 18:52
2016-Sep-24 18:36
2016-Sep-24 18:21
2016-Sep-24 18:06 314 1 gusting 2 4.4
2016-Sep-24 17:51 304 0 gusting 2 5.0
2016-Sep-24 17:36 307 1 gusting 3 5.0
2016-Sep-24 17:21 305 0 gusting 1 5.0
2016-Sep-24 17:06 297 2 gusting 4 5.6
2016-Sep-24 16:51 321 1 gusting 3 5.6
2016-Sep-24 16:36 300 1 gusting 2 5.6
2016-Sep-24 16:21 300 1 gusting 2 5.6
2016-Sep-24 16:06 305 0 gusting 2 6.1
2016-Sep-24 15:51 302 1 gusting 3 6.1
2016-Sep-24 15:36 307 1 gusting 2 6.1
2016-Sep-24 15:21 322 0 gusting 2 6.1
2016-Sep-24 15:06 291 0 gusting 2 6.7
2016-Sep-24 14:51 290 0 gusting 1 6.7
2016-Sep-24 14:36 294 1 gusting 2 7.2
2016-Sep-24 14:21 278 0 gusting 1 7.2
2016-Sep-24 14:06 277 0 gusting 2 7.8
2016-Sep-24 13:51 260 1 gusting 4 8.3
2016-Sep-24 13:36 238 1 gusting 3 8.3
2016-Sep-24 13:21 240 3 gusting 6 8.9
2016-Sep-24 13:05 249 4 gusting 6 8.9
2016-Sep-24 12:51 288 0 gusting 1 8.3
2016-Sep-24 12:35 288 0 gusting 2 8.9
2016-Sep-24 12:20 276 8.9
2016-Sep-24 12:06 274 8.9
2016-Sep-24 11:50 272 9.4
2016-Sep-24 11:35 271 9.4
2016-Sep-24 11:21 271 0 gusting 3 10.0
2016-Sep-24 11:05 255 2 gusting 5 10.0
2016-Sep-24 10:50 243 2 gusting 5 10.0
2016-Sep-24 10:35 231 1 gusting 5 10.6
2016-Sep-24 10:20 240 4 gusting 9 10.6
2016-Sep-24 10:05 225 5 gusting 7 10.6
2016-Sep-24 09:50 249 2 gusting 6 10.6
2016-Sep-24 09:35 238 5 gusting 9 10.6
2016-Sep-24 09:20 225 3 gusting 6 10.6
2016-Sep-24 09:05 217 6 gusting 10 11.1
2016-Sep-24 08:50 236 5 gusting 12 10.6
2016-Sep-24 08:35 215 8 gusting 17 11.1
2016-Sep-24 08:20 193 9 gusting 20 11.1
2016-Sep-24 08:05 213 7 gusting 13 11.7